sensor_id;sensor_type;location;lat;lon;timestamp;P1;durP1;ratioP1;P2;durP2;ratioP2
78131;SDS011;67381;47.672;9.380;2024-03-02T00:00:50;12.20;;;8.25;;
78131;SDS011;67381;47.672;9.380;2024-03-02T00:03:18;11.63;;;8.32;;
78131;SDS011;67381;47.672;9.380;2024-03-02T00:05:49;16.08;;;8.23;;
78131;SDS011;67381;47.672;9.380;2024-03-02T00:08:19;11.65;;;8.27;;
78131;SDS011;67381;47.672;9.380;2024-03-02T00:10:49;13.63;;;8.30;;
78131;SDS011;67381;47.672;9.380;2024-03-02T00:13:16;14.18;;;8.20;;
78131;SDS011;67381;47.672;9.380;2024-03-02T00:15:47;13.30;;;8.25;;
78131;SDS011;67381;47.672;9.380;2024-03-02T00:18:15;12.57;;;7.30;;
78131;SDS011;67381;47.672;9.380;2024-03-02T00:20:44;12.52;;;7.22;;
78131;SDS011;67381;47.672;9.380;2024-03-02T00:23:14;12.57;;;7.78;;
78131;SDS011;67381;47.672;9.380;2024-03-02T00:25:46;12.40;;;7.15;;
78131;SDS011;67381;47.672;9.380;2024-03-02T00:28:20;13.65;;;7.80;;
78131;SDS011;67381;47.672;9.380;2024-03-02T00:31:03;13.95;;;8.68;;
78131;SDS011;67381;47.672;9.380;2024-03-02T00:33:32;13.55;;;8.75;;
78131;SDS011;67381;47.672;9.380;2024-03-02T00:36:00;16.58;;;9.88;;
78131;SDS011;67381;47.672;9.380;2024-03-02T00:38:28;14.02;;;8.27;;
78131;SDS011;67381;47.672;9.380;2024-03-02T00:40:55;16.05;;;9.43;;
78131;SDS011;67381;47.672;9.380;2024-03-02T00:45:50;17.30;;;9.10;;
78131;SDS011;67381;47.672;9.380;2024-03-02T00:48:17;16.52;;;10.13;;
78131;SDS011;67381;47.672;9.380;2024-03-02T00:50:44;14.45;;;9.50;;
78131;SDS011;67381;47.672;9.380;2024-03-02T00:53:11;14.80;;;9.10;;
78131;SDS011;67381;47.672;9.380;2024-03-02T00:55:39;14.27;;;7.82;;
78131;SDS011;67381;47.672;9.380;2024-03-02T00:58:11;15.00;;;9.32;;
78131;SDS011;67381;47.672;9.380;2024-03-02T01:00:38;16.77;;;9.43;;
78131;SDS011;67381;47.672;9.380;2024-03-02T01:03:05;14.90;;;9.43;;
78131;SDS011;67381;47.672;9.380;2024-03-02T01:05:32;14.50;;;9.43;;
78131;SDS011;67381;47.672;9.380;2024-03-02T01:07:59;20.48;;;10.25;;
78131;SDS011;67381;47.672;9.380;2024-03-02T01:10:26;16.67;;;8.68;;
78131;SDS011;67381;47.672;9.380;2024-03-02T01:12:53;14.50;;;10.00;;
78131;SDS011;67381;47.672;9.380;2024-03-02T01:15:20;21.02;;;9.35;;
78131;SDS011;67381;47.672;9.380;2024-03-02T01:17:47;14.38;;;9.32;;
78131;SDS011;67381;47.672;9.380;2024-03-02T01:20:14;19.50;;;10.77;;
78131;SDS011;67381;47.672;9.380;2024-03-02T01:22:42;16.73;;;10.13;;
78131;SDS011;67381;47.672;9.380;2024-03-02T01:25:09;21.35;;;12.50;;
78131;SDS011;67381;47.672;9.380;2024-03-02T01:27:36;27.15;;;13.98;;
78131;SDS011;67381;47.672;9.380;2024-03-02T01:30:03;21.50;;;11.77;;
78131;SDS011;67381;47.672;9.380;2024-03-02T01:32:30;19.35;;;12.02;;
78131;SDS011;67381;47.672;9.380;2024-03-02T01:34:57;19.70;;;11.68;;
78131;SDS011;67381;47.672;9.380;2024-03-02T01:37:24;24.60;;;13.63;;
78131;SDS011;67381;47.672;9.380;2024-03-02T01:39:51;24.45;;;13.27;;
78131;SDS011;67381;47.672;9.380;2024-03-02T01:42:19;25.98;;;13.60;;
78131;SDS011;67381;47.672;9.380;2024-03-02T01:44:46;23.35;;;13.05;;
78131;SDS011;67381;47.672;9.380;2024-03-02T01:47:13;23.50;;;13.07;;
78131;SDS011;67381;47.672;9.380;2024-03-02T01:49:40;22.08;;;12.77;;
78131;SDS011;67381;47.672;9.380;2024-03-02T01:52:07;22.48;;;13.55;;
78131;SDS011;67381;47.672;9.380;2024-03-02T01:54:34;20.58;;;11.55;;
78131;SDS011;67381;47.672;9.380;2024-03-02T01:57:01;21.67;;;13.18;;
78131;SDS011;67381;47.672;9.380;2024-03-02T01:59:29;19.38;;;11.63;;
78131;SDS011;67381;47.672;9.380;2024-03-02T02:01:56;20.65;;;12.20;;
78131;SDS011;67381;47.672;9.380;2024-03-02T02:04:23;18.90;;;11.43;;
78131;SDS011;67381;47.672;9.380;2024-03-02T02:06:54;21.40;;;11.98;;
78131;SDS011;67381;47.672;9.380;2024-03-02T02:09:21;18.50;;;10.60;;
78131;SDS011;67381;47.672;9.380;2024-03-02T02:11:48;14.63;;;9.02;;
78131;SDS011;67381;47.672;9.380;2024-03-02T02:14:17;17.30;;;9.50;;
78131;SDS011;67381;47.672;9.380;2024-03-02T02:16:44;16.40;;;9.85;;
78131;SDS011;67381;47.672;9.380;2024-03-02T02:19:11;17.80;;;10.00;;
78131;SDS011;67381;47.672;9.380;2024-03-02T02:21:41;16.02;;;10.32;;
78131;SDS011;67381;47.672;9.380;2024-03-02T02:24:08;17.23;;;10.23;;
78131;SDS011;67381;47.672;9.380;2024-03-02T02:26:35;17.20;;;10.30;;
78131;SDS011;67381;47.672;9.380;2024-03-02T02:29:02;23.17;;;10.75;;
78131;SDS011;67381;47.672;9.380;2024-03-02T02:31:36;18.63;;;10.13;;
78131;SDS011;67381;47.672;9.380;2024-03-02T02:34:03;16.52;;;9.98;;
78131;SDS011;67381;47.672;9.380;2024-03-02T02:36:31;17.35;;;9.57;;
78131;SDS011;67381;47.672;9.380;2024-03-02T02:38:58;15.48;;;8.90;;
78131;SDS011;67381;47.672;9.380;2024-03-02T02:41:26;15.65;;;9.57;;
78131;SDS011;67381;47.672;9.380;2024-03-02T02:43:53;21.13;;;11.05;;
78131;SDS011;67381;47.672;9.380;2024-03-02T02:46:20;21.60;;;10.90;;
78131;SDS011;67381;47.672;9.380;2024-03-02T02:48:47;26.50;;;13.60;;
78131;SDS011;67381;47.672;9.380;2024-03-02T02:51:15;24.38;;;12.13;;
78131;SDS011;67381;47.672;9.380;2024-03-02T02:53:43;22.83;;;13.18;;
78131;SDS011;67381;47.672;9.380;2024-03-02T02:56:10;33.95;;;17.15;;
78131;SDS011;67381;47.672;9.380;2024-03-02T02:58:37;29.92;;;15.73;;
78131;SDS011;67381;47.672;9.380;2024-03-02T03:01:04;29.02;;;15.75;;
78131;SDS011;67381;47.672;9.380;2024-03-02T03:03:31;25.02;;;13.95;;
78131;SDS011;67381;47.672;9.380;2024-03-02T03:05:58;25.17;;;14.00;;
78131;SDS011;67381;47.672;9.380;2024-03-02T03:08:25;24.42;;;12.88;;
78131;SDS011;67381;47.672;9.380;2024-03-02T03:10:52;24.38;;;13.02;;
78131;SDS011;67381;47.672;9.380;2024-03-02T03:13:19;20.77;;;12.65;;
78131;SDS011;67381;47.672;9.380;2024-03-02T03:15:47;19.30;;;11.35;;
78131;SDS011;67381;47.672;9.380;2024-03-02T03:18:14;19.95;;;10.95;;
78131;SDS011;67381;47.672;9.380;2024-03-02T03:20:41;20.80;;;11.20;;
78131;SDS011;67381;47.672;9.380;2024-03-02T03:23:08;18.65;;;11.05;;
78131;SDS011;67381;47.672;9.380;2024-03-02T03:25:35;22.67;;;12.15;;
78131;SDS011;67381;47.672;9.380;2024-03-02T03:28:02;25.63;;;15.10;;
78131;SDS011;67381;47.672;9.380;2024-03-02T03:30:30;26.80;;;14.32;;
78131;SDS011;67381;47.672;9.380;2024-03-02T03:32:57;21.50;;;12.07;;
78131;SDS011;67381;47.672;9.380;2024-03-02T03:35:24;14.77;;;9.70;;
78131;SDS011;67381;47.672;9.380;2024-03-02T03:37:51;17.20;;;10.02;;
78131;SDS011;67381;47.672;9.380;2024-03-02T03:40:18;19.92;;;11.15;;
78131;SDS011;67381;47.672;9.380;2024-03-02T03:42:46;16.33;;;9.25;;
78131;SDS011;67381;47.672;9.380;2024-03-02T03:45:13;23.63;;;11.02;;
78131;SDS011;67381;47.672;9.380;2024-03-02T03:47:40;20.27;;;11.00;;
78131;SDS011;67381;47.672;9.380;2024-03-02T03:50:07;18.80;;;10.98;;
78131;SDS011;67381;47.672;9.380;2024-03-02T03:52:35;19.27;;;11.48;;
78131;SDS011;67381;47.672;9.380;2024-03-02T03:55:02;17.33;;;10.93;;
78131;SDS011;67381;47.672;9.380;2024-03-02T03:57:29;21.92;;;11.07;;
78131;SDS011;67381;47.672;9.380;2024-03-02T03:59:56;19.15;;;11.48;;
78131;SDS011;67381;47.672;9.380;2024-03-02T04:02:23;24.92;;;11.55;;
78131;SDS011;67381;47.672;9.380;2024-03-02T04:04:51;22.13;;;12.68;;
78131;SDS011;67381;47.672;9.380;2024-03-02T04:07:18;26.70;;;12.30;;
78131;SDS011;67381;47.672;9.380;2024-03-02T04:09:45;24.48;;;12.40;;
78131;SDS011;67381;47.672;9.380;2024-03-02T04:12:12;22.23;;;11.35;;
78131;SDS011;67381;47.672;9.380;2024-03-02T04:14:40;26.60;;;11.25;;
78131;SDS011;67381;47.672;9.380;2024-03-02T04:17:09;20.00;;;10.80;;
78131;SDS011;67381;47.672;9.380;2024-03-02T04:19:36;19.40;;;10.05;;
78131;SDS011;67381;47.672;9.380;2024-03-02T04:22:03;20.63;;;10.45;;
78131;SDS011;67381;47.672;9.380;2024-03-02T04:24:31;20.70;;;10.32;;
78131;SDS011;67381;47.672;9.380;2024-03-02T04:26:58;15.77;;;9.60;;
78131;SDS011;67381;47.672;9.380;2024-03-02T04:29:25;19.70;;;10.52;;
78131;SDS011;67381;47.672;9.380;2024-03-02T04:31:52;20.98;;;11.27;;
78131;SDS011;67381;47.672;9.380;2024-03-02T04:34:20;19.58;;;10.23;;
78131;SDS011;67381;47.672;9.380;2024-03-02T04:36:47;20.27;;;10.75;;
78131;SDS011;67381;47.672;9.380;2024-03-02T04:39:14;19.58;;;10.85;;
78131;SDS011;67381;47.672;9.380;2024-03-02T04:41:41;21.35;;;10.68;;
78131;SDS011;67381;47.672;9.380;2024-03-02T04:44:08;21.52;;;11.05;;
78131;SDS011;67381;47.672;9.380;2024-03-02T04:46:35;26.75;;;10.90;;
78131;SDS011;67381;47.672;9.380;2024-03-02T04:49:02;22.45;;;10.82;;
78131;SDS011;67381;47.672;9.380;2024-03-02T04:51:29;22.23;;;11.55;;
78131;SDS011;67381;47.672;9.380;2024-03-02T04:53:56;21.17;;;12.10;;
78131;SDS011;67381;47.672;9.380;2024-03-02T04:56:23;23.30;;;11.32;;
78131;SDS011;67381;47.672;9.380;2024-03-02T04:58:59;21.42;;;11.50;;
78131;SDS011;67381;47.672;9.380;2024-03-02T05:01:26;20.73;;;11.35;;
78131;SDS011;67381;47.672;9.380;2024-03-02T05:03:53;22.45;;;11.63;;
78131;SDS011;67381;47.672;9.380;2024-03-02T05:06:20;22.20;;;12.30;;
78131;SDS011;67381;47.672;9.380;2024-03-02T05:08:47;22.98;;;12.50;;
78131;SDS011;67381;47.672;9.380;2024-03-02T05:11:14;24.02;;;13.65;;
78131;SDS011;67381;47.672;9.380;2024-03-02T05:14:02;27.05;;;14.32;;
78131;SDS011;67381;47.672;9.380;2024-03-02T05:16:29;33.70;;;15.48;;
78131;SDS011;67381;47.672;9.380;2024-03-02T05:18:59;30.38;;;15.95;;
78131;SDS011;67381;47.672;9.380;2024-03-02T05:21:26;41.50;;;17.52;;
78131;SDS011;67381;47.672;9.380;2024-03-02T05:23:53;39.25;;;15.65;;
78131;SDS011;67381;47.672;9.380;2024-03-02T05:26:20;32.65;;;15.98;;
78131;SDS011;67381;47.672;9.380;2024-03-02T05:28:47;32.42;;;16.23;;
78131;SDS011;67381;47.672;9.380;2024-03-02T05:31:14;30.20;;;14.15;;
78131;SDS011;67381;47.672;9.380;2024-03-02T05:33:42;30.70;;;15.00;;
78131;SDS011;67381;47.672;9.380;2024-03-02T05:36:09;28.42;;;14.07;;
78131;SDS011;67381;47.672;9.380;2024-03-02T05:38:36;33.28;;;16.80;;
78131;SDS011;67381;47.672;9.380;2024-03-02T05:41:03;32.95;;;16.02;;
78131;SDS011;67381;47.672;9.380;2024-03-02T05:43:31;35.10;;;15.55;;
78131;SDS011;67381;47.672;9.380;2024-03-02T05:45:58;32.38;;;15.48;;
78131;SDS011;67381;47.672;9.380;2024-03-02T05:48:25;32.70;;;14.18;;
78131;SDS011;67381;47.672;9.380;2024-03-02T05:50:52;30.15;;;14.93;;
78131;SDS011;67381;47.672;9.380;2024-03-02T05:53:19;26.33;;;14.13;;
78131;SDS011;67381;47.672;9.380;2024-03-02T05:55:46;28.58;;;13.93;;
78131;SDS011;67381;47.672;9.380;2024-03-02T05:58:14;25.83;;;14.65;;
78131;SDS011;67381;47.672;9.380;2024-03-02T06:00:44;24.58;;;12.80;;
78131;SDS011;67381;47.672;9.380;2024-03-02T06:03:11;29.00;;;13.73;;
78131;SDS011;67381;47.672;9.380;2024-03-02T06:05:38;29.60;;;13.63;;
78131;SDS011;67381;47.672;9.380;2024-03-02T06:08:05;25.25;;;14.13;;
78131;SDS011;67381;47.672;9.380;2024-03-02T06:10:32;25.58;;;12.38;;
78131;SDS011;67381;47.672;9.380;2024-03-02T06:13:00;24.75;;;13.60;;
78131;SDS011;67381;47.672;9.380;2024-03-02T06:15:27;26.67;;;13.32;;
78131;SDS011;67381;47.672;9.380;2024-03-02T06:17:54;25.77;;;13.40;;
78131;SDS011;67381;47.672;9.380;2024-03-02T06:20:21;24.73;;;12.48;;
78131;SDS011;67381;47.672;9.380;2024-03-02T06:22:48;28.98;;;13.30;;
78131;SDS011;67381;47.672;9.380;2024-03-02T06:25:15;25.90;;;14.27;;
78131;SDS011;67381;47.672;9.380;2024-03-02T06:27:42;27.52;;;14.07;;
78131;SDS011;67381;47.672;9.380;2024-03-02T06:30:09;32.10;;;14.18;;
78131;SDS011;67381;47.672;9.380;2024-03-02T06:32:37;29.92;;;14.45;;
78131;SDS011;67381;47.672;9.380;2024-03-02T06:35:04;30.35;;;14.77;;
78131;SDS011;67381;47.672;9.380;2024-03-02T06:37:32;29.88;;;14.23;;
78131;SDS011;67381;47.672;9.380;2024-03-02T06:39:59;30.45;;;15.55;;
78131;SDS011;67381;47.672;9.380;2024-03-02T06:42:26;24.10;;;13.48;;
78131;SDS011;67381;47.672;9.380;2024-03-02T06:44:53;28.42;;;14.98;;
78131;SDS011;67381;47.672;9.380;2024-03-02T06:47:21;26.90;;;14.30;;
78131;SDS011;67381;47.672;9.380;2024-03-02T06:49:48;27.88;;;13.57;;
78131;SDS011;67381;47.672;9.380;2024-03-02T06:52:15;33.42;;;13.85;;
78131;SDS011;67381;47.672;9.380;2024-03-02T06:54:42;27.67;;;13.73;;
78131;SDS011;67381;47.672;9.380;2024-03-02T06:57:09;28.05;;;14.63;;
78131;SDS011;67381;47.672;9.380;2024-03-02T06:59:36;23.77;;;13.15;;
78131;SDS011;67381;47.672;9.380;2024-03-02T07:02:04;29.02;;;14.77;;
78131;SDS011;67381;47.672;9.380;2024-03-02T07:04:31;22.20;;;12.52;;
78131;SDS011;67381;47.672;9.380;2024-03-02T07:06:58;25.75;;;13.75;;
78131;SDS011;67381;47.672;9.380;2024-03-02T07:09:25;24.70;;;13.32;;
78131;SDS011;67381;47.672;9.380;2024-03-02T07:11:52;24.90;;;13.70;;
78131;SDS011;67381;47.672;9.380;2024-03-02T07:14:20;27.42;;;14.68;;
78131;SDS011;67381;47.672;9.380;2024-03-02T07:16:47;33.28;;;15.25;;
78131;SDS011;67381;47.672;9.380;2024-03-02T07:19:14;28.88;;;14.63;;
78131;SDS011;67381;47.672;9.380;2024-03-02T07:21:41;25.60;;;14.02;;
78131;SDS011;67381;47.672;9.380;2024-03-02T07:24:08;26.10;;;14.93;;
78131;SDS011;67381;47.672;9.380;2024-03-02T07:26:39;26.33;;;14.60;;
78131;SDS011;67381;47.672;9.380;2024-03-02T07:29:09;33.88;;;15.38;;
78131;SDS011;67381;47.672;9.380;2024-03-02T07:31:36;30.63;;;15.68;;
78131;SDS011;67381;47.672;9.380;2024-03-02T07:34:03;30.20;;;14.65;;
78131;SDS011;67381;47.672;9.380;2024-03-02T07:36:30;36.72;;;15.38;;
78131;SDS011;67381;47.672;9.380;2024-03-02T07:38:57;30.33;;;14.98;;
78131;SDS011;67381;47.672;9.380;2024-03-02T07:41:25;31.17;;;14.52;;
78131;SDS011;67381;47.672;9.380;2024-03-02T07:43:52;32.63;;;15.43;;
78131;SDS011;67381;47.672;9.380;2024-03-02T07:46:19;51.63;;;14.93;;
78131;SDS011;67381;47.672;9.380;2024-03-02T07:48:46;30.23;;;14.38;;
78131;SDS011;67381;47.672;9.380;2024-03-02T07:51:14;28.92;;;14.43;;
78131;SDS011;67381;47.672;9.380;2024-03-02T07:53:41;25.95;;;15.45;;
78131;SDS011;67381;47.672;9.380;2024-03-02T07:56:09;35.13;;;14.00;;
78131;SDS011;67381;47.672;9.380;2024-03-02T07:58:36;29.45;;;15.15;;
78131;SDS011;67381;47.672;9.380;2024-03-02T08:01:03;33.00;;;15.63;;
78131;SDS011;67381;47.672;9.380;2024-03-02T08:03:30;34.15;;;13.85;;
78131;SDS011;67381;47.672;9.380;2024-03-02T08:05:59;27.27;;;14.18;;
78131;SDS011;67381;47.672;9.380;2024-03-02T08:08:26;23.40;;;12.98;;
78131;SDS011;67381;47.672;9.380;2024-03-02T08:10:53;22.08;;;12.50;;
78131;SDS011;67381;47.672;9.380;2024-03-02T08:13:20;21.90;;;12.07;;
78131;SDS011;67381;47.672;9.380;2024-03-02T08:15:47;28.13;;;14.20;;
78131;SDS011;67381;47.672;9.380;2024-03-02T08:18:14;24.80;;;14.32;;
78131;SDS011;67381;47.672;9.380;2024-03-02T08:20:41;27.10;;;13.98;;
78131;SDS011;67381;47.672;9.380;2024-03-02T08:23:08;25.63;;;14.02;;
78131;SDS011;67381;47.672;9.380;2024-03-02T08:25:35;23.55;;;12.30;;
78131;SDS011;67381;47.672;9.380;2024-03-02T08:28:03;24.80;;;13.75;;
78131;SDS011;67381;47.672;9.380;2024-03-02T08:30:31;25.58;;;12.77;;
78131;SDS011;67381;47.672;9.380;2024-03-02T08:32:59;28.80;;;14.07;;
78131;SDS011;67381;47.672;9.380;2024-03-02T08:35:26;32.13;;;14.98;;
78131;SDS011;67381;47.672;9.380;2024-03-02T08:37:53;21.48;;;12.95;;
78131;SDS011;67381;47.672;9.380;2024-03-02T08:40:20;33.47;;;14.88;;
78131;SDS011;67381;47.672;9.380;2024-03-02T08:42:47;31.67;;;17.35;;
78131;SDS011;67381;47.672;9.380;2024-03-02T08:45:15;25.70;;;13.77;;
78131;SDS011;67381;47.672;9.380;2024-03-02T08:47:42;24.08;;;12.88;;
78131;SDS011;67381;47.672;9.380;2024-03-02T08:50:10;24.63;;;13.85;;
78131;SDS011;67381;47.672;9.380;2024-03-02T08:52:37;22.02;;;13.40;;
78131;SDS011;67381;47.672;9.380;2024-03-02T08:55:04;24.85;;;13.32;;
78131;SDS011;67381;47.672;9.380;2024-03-02T08:57:32;19.40;;;12.18;;
78131;SDS011;67381;47.672;9.380;2024-03-02T08:59:59;20.23;;;12.32;;
78131;SDS011;67381;47.672;9.380;2024-03-02T09:02:26;21.05;;;11.98;;
78131;SDS011;67381;47.672;9.380;2024-03-02T09:04:54;21.48;;;11.65;;
78131;SDS011;67381;47.672;9.380;2024-03-02T09:07:21;19.02;;;11.45;;
78131;SDS011;67381;47.672;9.380;2024-03-02T09:09:48;21.80;;;11.35;;
78131;SDS011;67381;47.672;9.380;2024-03-02T09:12:15;24.08;;;11.95;;
78131;SDS011;67381;47.672;9.380;2024-03-02T09:14:42;19.00;;;10.90;;
78131;SDS011;67381;47.672;9.380;2024-03-02T09:17:09;19.45;;;11.45;;
78131;SDS011;67381;47.672;9.380;2024-03-02T09:19:39;19.55;;;10.77;;
78131;SDS011;67381;47.672;9.380;2024-03-02T09:22:06;18.83;;;11.30;;
78131;SDS011;67381;47.672;9.380;2024-03-02T09:24:33;17.98;;;10.35;;
78131;SDS011;67381;47.672;9.380;2024-03-02T09:27:01;19.98;;;10.75;;
78131;SDS011;67381;47.672;9.380;2024-03-02T09:29:29;17.08;;;10.48;;
78131;SDS011;67381;47.672;9.380;2024-03-02T09:31:56;17.23;;;11.13;;
78131;SDS011;67381;47.672;9.380;2024-03-02T09:34:23;20.20;;;12.30;;
78131;SDS011;67381;47.672;9.380;2024-03-02T09:36:51;21.13;;;11.68;;
78131;SDS011;67381;47.672;9.380;2024-03-02T09:39:18;18.30;;;11.30;;
78131;SDS011;67381;47.672;9.380;2024-03-02T09:41:45;17.27;;;10.68;;
78131;SDS011;67381;47.672;9.380;2024-03-02T09:44:13;23.02;;;9.60;;
78131;SDS011;67381;47.672;9.380;2024-03-02T09:46:40;18.20;;;10.82;;
78131;SDS011;67381;47.672;9.380;2024-03-02T09:49:10;16.92;;;10.75;;
78131;SDS011;67381;47.672;9.380;2024-03-02T09:51:37;16.23;;;10.82;;
78131;SDS011;67381;47.672;9.380;2024-03-02T09:54:05;17.25;;;10.35;;
78131;SDS011;67381;47.672;9.380;2024-03-02T09:56:35;14.82;;;9.00;;
78131;SDS011;67381;47.672;9.380;2024-03-02T09:59:02;14.00;;;8.88;;
78131;SDS011;67381;47.672;9.380;2024-03-02T10:01:30;15.90;;;8.85;;
78131;SDS011;67381;47.672;9.380;2024-03-02T10:04:00;16.23;;;9.32;;
78131;SDS011;67381;47.672;9.380;2024-03-02T10:06:27;15.98;;;9.77;;
78131;SDS011;67381;47.672;9.380;2024-03-02T10:08:55;17.52;;;9.32;;
78131;SDS011;67381;47.672;9.380;2024-03-02T10:14:03;14.70;;;9.18;;
78131;SDS011;67381;47.672;9.380;2024-03-02T10:16:30;16.58;;;9.75;;
78131;SDS011;67381;47.672;9.380;2024-03-02T10:18:57;18.33;;;9.55;;
78131;SDS011;67381;47.672;9.380;2024-03-02T10:21:24;16.55;;;9.73;;
78131;SDS011;67381;47.672;9.380;2024-03-02T10:23:52;14.07;;;8.88;;
78131;SDS011;67381;47.672;9.380;2024-03-02T10:26:19;12.57;;;7.95;;
78131;SDS011;67381;47.672;9.380;2024-03-02T10:28:46;11.07;;;6.55;;
78131;SDS011;67381;47.672;9.380;2024-03-02T10:31:19;9.18;;;5.80;;
78131;SDS011;67381;47.672;9.380;2024-03-02T10:33:46;9.65;;;6.30;;
78131;SDS011;67381;47.672;9.380;2024-03-02T10:36:13;8.63;;;5.20;;
78131;SDS011;67381;47.672;9.380;2024-03-02T10:38:41;8.75;;;5.53;;
78131;SDS011;67381;47.672;9.380;2024-03-02T10:41:09;8.93;;;5.60;;
78131;SDS011;67381;47.672;9.380;2024-03-02T10:43:36;8.43;;;4.75;;
78131;SDS011;67381;47.672;9.380;2024-03-02T10:46:03;6.90;;;4.38;;
78131;SDS011;67381;47.672;9.380;2024-03-02T10:48:30;8.48;;;5.30;;
78131;SDS011;67381;47.672;9.380;2024-03-02T10:50:58;7.70;;;4.30;;
78131;SDS011;67381;47.672;9.380;2024-03-02T10:53:28;6.10;;;4.20;;
78131;SDS011;67381;47.672;9.380;2024-03-02T10:55:57;8.75;;;4.15;;
78131;SDS011;67381;47.672;9.380;2024-03-02T10:58:31;6.93;;;3.90;;
78131;SDS011;67381;47.672;9.380;2024-03-02T11:01:00;5.68;;;4.13;;
78131;SDS011;67381;47.672;9.380;2024-03-02T11:03:33;6.47;;;3.78;;
78131;SDS011;67381;47.672;9.380;2024-03-02T11:06:02;6.78;;;3.40;;
78131;SDS011;67381;47.672;9.380;2024-03-02T11:08:34;5.05;;;2.75;;
78131;SDS011;67381;47.672;9.380;2024-03-02T11:11:06;8.02;;;2.92;;
78131;SDS011;67381;47.672;9.380;2024-03-02T11:13:34;7.65;;;4.38;;
78131;SDS011;67381;47.672;9.380;2024-03-02T11:16:03;7.45;;;4.63;;
78131;SDS011;67381;47.672;9.380;2024-03-02T11:18:32;7.15;;;4.63;;
78131;SDS011;67381;47.672;9.380;2024-03-02T11:20:59;10.88;;;6.63;;
78131;SDS011;67381;47.672;9.380;2024-03-02T11:23:33;22.05;;;8.25;;
78131;SDS011;67381;47.672;9.380;2024-03-02T11:26:16;12.13;;;7.43;;
78131;SDS011;67381;47.672;9.380;2024-03-02T11:28:47;14.65;;;7.15;;
78131;SDS011;67381;47.672;9.380;2024-03-02T11:31:14;10.45;;;6.80;;
78131;SDS011;67381;47.672;9.380;2024-03-02T11:33:41;9.82;;;5.97;;
78131;SDS011;67381;47.672;9.380;2024-03-02T11:36:08;8.55;;;5.43;;
78131;SDS011;67381;47.672;9.380;2024-03-02T11:38:36;8.82;;;5.28;;
78131;SDS011;67381;47.672;9.380;2024-03-02T11:41:05;9.75;;;5.95;;
78131;SDS011;67381;47.672;9.380;2024-03-02T11:43:36;5.68;;;3.22;;
78131;SDS011;67381;47.672;9.380;2024-03-02T11:46:04;9.55;;;5.20;;
78131;SDS011;67381;47.672;9.380;2024-03-02T11:48:34;7.75;;;5.38;;
78131;SDS011;67381;47.672;9.380;2024-03-02T11:51:02;6.78;;;4.13;;
78131;SDS011;67381;47.672;9.380;2024-03-02T11:53:29;10.40;;;5.07;;
78131;SDS011;67381;47.672;9.380;2024-03-02T11:55:59;8.15;;;5.07;;
78131;SDS011;67381;47.672;9.380;2024-03-02T11:58:26;5.18;;;2.78;;
78131;SDS011;67381;47.672;9.380;2024-03-02T12:00:54;4.22;;;2.00;;
78131;SDS011;67381;47.672;9.380;2024-03-02T12:03:22;5.47;;;3.50;;
78131;SDS011;67381;47.672;9.380;2024-03-02T12:05:50;7.43;;;3.33;;
78131;SDS011;67381;47.672;9.380;2024-03-02T12:08:17;5.47;;;3.20;;
78131;SDS011;67381;47.672;9.380;2024-03-02T12:11:00;5.13;;;2.30;;
78131;SDS011;67381;47.672;9.380;2024-03-02T12:13:27;4.47;;;1.77;;
78131;SDS011;67381;47.672;9.380;2024-03-02T12:15:55;3.40;;;1.52;;
78131;SDS011;67381;47.672;9.380;2024-03-02T12:18:23;4.85;;;1.95;;
78131;SDS011;67381;47.672;9.380;2024-03-02T12:20:50;2.67;;;1.35;;
78131;SDS011;67381;47.672;9.380;2024-03-02T12:23:24;4.43;;;1.73;;
78131;SDS011;67381;47.672;9.380;2024-03-02T12:25:51;6.88;;;4.15;;
78131;SDS011;67381;47.672;9.380;2024-03-02T12:28:19;7.72;;;4.57;;
78131;SDS011;67381;47.672;9.380;2024-03-02T12:30:46;7.75;;;4.60;;
78131;SDS011;67381;47.672;9.380;2024-03-02T12:33:14;6.93;;;4.05;;
78131;SDS011;67381;47.672;9.380;2024-03-02T12:35:41;6.80;;;3.50;;
78131;SDS011;67381;47.672;9.380;2024-03-02T12:38:09;6.97;;;3.53;;
78131;SDS011;67381;47.672;9.380;2024-03-02T12:40:37;4.90;;;2.40;;
78131;SDS011;67381;47.672;9.380;2024-03-02T12:43:05;5.57;;;3.03;;
78131;SDS011;67381;47.672;9.380;2024-03-02T12:45:32;5.13;;;2.83;;
78131;SDS011;67381;47.672;9.380;2024-03-02T12:48:00;4.80;;;2.53;;
78131;SDS011;67381;47.672;9.380;2024-03-02T12:50:27;5.68;;;2.97;;
78131;SDS011;67381;47.672;9.380;2024-03-02T12:52:54;5.22;;;3.00;;
78131;SDS011;67381;47.672;9.380;2024-03-02T12:55:25;4.05;;;2.05;;
78131;SDS011;67381;47.672;9.380;2024-03-02T12:57:52;4.43;;;1.35;;
78131;SDS011;67381;47.672;9.380;2024-03-02T13:00:20;6.15;;;1.30;;
78131;SDS011;67381;47.672;9.380;2024-03-02T13:02:47;3.10;;;1.42;;
78131;SDS011;67381;47.672;9.380;2024-03-02T13:05:15;8.90;;;1.83;;
78131;SDS011;67381;47.672;9.380;2024-03-02T13:07:42;5.50;;;1.95;;
78131;SDS011;67381;47.672;9.380;2024-03-02T13:10:09;14.70;;;5.07;;
78131;SDS011;67381;47.672;9.380;2024-03-02T13:12:37;9.00;;;3.25;;
78131;SDS011;67381;47.672;9.380;2024-03-02T13:15:04;3.58;;;1.55;;
78131;SDS011;67381;47.672;9.380;2024-03-02T13:17:34;4.43;;;1.90;;
78131;SDS011;67381;47.672;9.380;2024-03-02T13:20:02;3.25;;;1.40;;
78131;SDS011;67381;47.672;9.380;2024-03-02T13:22:31;6.65;;;2.20;;
78131;SDS011;67381;47.672;9.380;2024-03-02T13:24:58;3.72;;;1.40;;
78131;SDS011;67381;47.672;9.380;2024-03-02T13:27:26;2.47;;;1.00;;
78131;SDS011;67381;47.672;9.380;2024-03-02T13:29:54;2.78;;;0.80;;
78131;SDS011;67381;47.672;9.380;2024-03-02T13:32:21;2.15;;;0.93;;
78131;SDS011;67381;47.672;9.380;2024-03-02T13:34:50;1.83;;;0.90;;
78131;SDS011;67381;47.672;9.380;2024-03-02T13:37:18;5.35;;;2.70;;
78131;SDS011;67381;47.672;9.380;2024-03-02T13:39:45;4.70;;;2.50;;
78131;SDS011;67381;47.672;9.380;2024-03-02T13:42:12;5.55;;;2.60;;
78131;SDS011;67381;47.672;9.380;2024-03-02T13:44:45;5.80;;;3.47;;
78131;SDS011;67381;47.672;9.380;2024-03-02T13:47:17;5.75;;;3.40;;
78131;SDS011;67381;47.672;9.380;2024-03-02T13:49:44;6.22;;;3.42;;
78131;SDS011;67381;47.672;9.380;2024-03-02T13:52:13;5.18;;;3.08;;
78131;SDS011;67381;47.672;9.380;2024-03-02T13:54:41;4.13;;;2.28;;
78131;SDS011;67381;47.672;9.380;2024-03-02T13:57:08;5.05;;;2.97;;
78131;SDS011;67381;47.672;9.380;2024-03-02T13:59:36;7.47;;;2.90;;
78131;SDS011;67381;47.672;9.380;2024-03-02T14:02:04;5.05;;;2.75;;
78131;SDS011;67381;47.672;9.380;2024-03-02T14:04:32;5.88;;;3.05;;
78131;SDS011;67381;47.672;9.380;2024-03-02T14:07:00;5.15;;;2.30;;
78131;SDS011;67381;47.672;9.380;2024-03-02T14:09:27;5.13;;;2.30;;
78131;SDS011;67381;47.672;9.380;2024-03-02T14:11:55;6.20;;;3.97;;
78131;SDS011;67381;47.672;9.380;2024-03-02T14:14:22;5.35;;;3.33;;
78131;SDS011;67381;47.672;9.380;2024-03-02T14:16:50;4.63;;;2.95;;
78131;SDS011;67381;47.672;9.380;2024-03-02T14:19:17;4.65;;;2.97;;
78131;SDS011;67381;47.672;9.380;2024-03-02T14:21:44;2.85;;;1.40;;
78131;SDS011;67381;47.672;9.380;2024-03-02T14:24:11;4.13;;;1.98;;
78131;SDS011;67381;47.672;9.380;2024-03-02T14:26:38;3.75;;;2.13;;
78131;SDS011;67381;47.672;9.380;2024-03-02T14:29:05;4.45;;;1.90;;
78131;SDS011;67381;47.672;9.380;2024-03-02T14:31:32;3.35;;;1.75;;
78131;SDS011;67381;47.672;9.380;2024-03-02T14:33:59;6.43;;;1.70;;
78131;SDS011;67381;47.672;9.380;2024-03-02T14:36:27;3.47;;;1.70;;
78131;SDS011;67381;47.672;9.380;2024-03-02T14:38:54;4.15;;;2.10;;